createdAt,value
2022-12-04T00:01:23.319Z,100628.88
2022-12-04T00:03:53.264Z,100683.13
2022-12-04T00:06:20.859Z,100683.16
2022-12-04T00:08:48.476Z,100683.16
2022-12-04T00:11:17.011Z,100689.38
2022-12-04T00:13:46.001Z,100683.34
2022-12-04T00:16:15.158Z,100683.22
2022-12-04T00:18:42.630Z,100685.94
2022-12-04T00:21:10.909Z,100668.81
2022-12-04T00:23:38.570Z,100623.81
2022-12-04T00:26:07.101Z,100683.22
2022-12-04T00:28:34.846Z,100682.28
2022-12-04T00:31:06.112Z,100683.16
2022-12-04T00:33:33.591Z,100682.28
2022-12-04T00:36:01.655Z,100683.16
2022-12-04T00:38:29.153Z,100688.44
2022-12-04T00:40:56.653Z,100684.94
2022-12-04T00:43:24.188Z,100675.31
2022-12-04T00:45:51.758Z,100683.34
2022-12-04T00:48:20.617Z,100668.31
2022-12-04T00:50:48.096Z,100672.66
2022-12-04T00:53:15.531Z,100671.78
2022-12-04T00:55:43.131Z,100607.53
2022-12-04T00:58:10.681Z,100666.56
2022-12-04T01:00:38.295Z,100584.53
2022-12-04T01:03:07.508Z,100587.19
2022-12-04T01:05:40.468Z,100661.19
2022-12-04T01:08:08.032Z,100655.91
2022-12-04T01:10:35.629Z,100661.13
2022-12-04T01:13:03.083Z,100654.19
2022-12-04T01:15:30.546Z,100661.19
2022-12-04T01:17:58.029Z,100655.94
2022-12-04T01:20:25.476Z,100656.81
2022-12-04T01:22:54.264Z,100652.41
2022-12-04T01:25:21.717Z,100649.78
2022-12-04T01:27:49.171Z,100646.22
2022-12-04T01:30:16.855Z,100654.13
2022-12-04T01:32:44.415Z,100649.78
2022-12-04T01:35:11.877Z,100647.06
2022-12-04T01:37:39.337Z,100643.56
2022-12-04T01:40:11.517Z,100643.56
2022-12-04T01:42:39.004Z,100628.78
2022-12-04T01:45:37.808Z,100628.66
2022-12-04T01:48:10.180Z,100570.38
2022-12-04T01:50:37.801Z,100551.19
2022-12-04T01:53:05.235Z,100635.75
2022-12-04T01:55:33.991Z,100638.34
2022-12-04T01:58:01.553Z,100639.22
2022-12-04T02:00:29.057Z,100634.78
2022-12-04T02:02:56.603Z,100639.22
2022-12-04T02:05:24.128Z,100633.94
2022-12-04T02:07:53.299Z,100635.69
2022-12-04T02:10:24.341Z,100642.75
2022-12-04T02:12:56.879Z,100623.94
2022-12-04T02:15:25.786Z,100648.03
2022-12-04T02:17:55.163Z,100645.38
2022-12-04T02:20:30.448Z,100645.38
2022-12-04T02:23:23.185Z,100640.22
2022-12-04T02:25:54.860Z,100626.53
2022-12-04T02:28:24.244Z,100641.84
2022-12-04T02:30:52.352Z,100642.69
2022-12-04T02:33:21.312Z,100616.03
2022-12-04T02:35:50.372Z,100643.56
2022-12-04T02:38:22.182Z,100635.66
2022-12-04T02:40:52.367Z,100639.22
2022-12-04T02:43:19.942Z,100637.53
2022-12-04T02:45:52.388Z,100608.16
2022-12-04T02:48:20.576Z,100628.78
2022-12-04T02:50:49.288Z,100608.22
2022-12-04T02:53:18.539Z,100587.16
2022-12-04T02:55:47.406Z,100622.56
2022-12-04T02:58:17.023Z,100624.25
2022-12-04T03:00:45.049Z,100608.00
2022-12-04T03:03:15.359Z,100627.78
2022-12-04T03:05:45.796Z,100628.66
2022-12-04T03:08:15.437Z,100629.53
2022-12-04T03:10:45.139Z,100621.63
2022-12-04T03:13:14.363Z,100614.56
2022-12-04T03:15:43.139Z,100611.13
2022-12-04T03:18:12.989Z,100606.72
2022-12-04T03:20:41.808Z,100569.03
2022-12-04T03:23:10.990Z,100581.94
2022-12-04T03:25:40.800Z,100613.72
2022-12-04T03:28:09.431Z,100605.06
2022-12-04T03:30:38.895Z,100611.94
2022-12-04T03:33:08.474Z,100612.81
2022-12-04T03:35:40.077Z,100581.84
2022-12-04T03:38:11.337Z,100596.44
2022-12-04T03:40:39.460Z,100611.06
2022-12-04T03:43:15.970Z,100568.00
2022-12-04T03:45:45.354Z,100604.06
2022-12-04T03:48:22.516Z,100575.69
2022-12-04T03:50:52.251Z,100610.28
2022-12-04T03:53:22.920Z,100585.38
2022-12-04T03:55:52.637Z,100603.72
2022-12-04T03:58:23.230Z,100602.94
2022-12-04T04:00:51.789Z,100636.63
2022-12-04T04:03:20.833Z,100632.19
2022-12-04T04:05:50.407Z,100623.50
2022-12-04T04:08:30.851Z,100627.91
2022-12-04T04:11:01.791Z,100627.91
2022-12-04T04:13:51.419Z,100602.94
2022-12-04T04:16:36.693Z,100626.38
2022-12-04T04:19:21.967Z,100632.38
2022-12-04T04:22:07.358Z,100630.59
2022-12-04T04:24:39.214Z,100614.22
2022-12-04T04:27:08.042Z,100620.03
2022-12-04T04:29:35.509Z,100619.22
2022-12-04T04:32:04.840Z,100599.31
2022-12-04T04:34:34.963Z,100571.75
2022-12-04T04:37:04.408Z,100581.25
2022-12-04T04:39:33.792Z,100584.66
2022-12-04T04:42:04.200Z,100597.56
2022-12-04T04:44:34.557Z,100616.47
2022-12-04T04:47:03.908Z,100589.94
2022-12-04T04:49:31.889Z,100591.53
2022-12-04T04:51:59.344Z,100600.13
2022-12-04T04:54:26.806Z,100600.81
2022-12-04T04:56:54.262Z,100612.94
2022-12-04T05:01:45.898Z,100618.22
2022-12-04T05:04:13.464Z,100574.31
2022-12-04T05:06:40.949Z,100606.31
2022-12-04T05:09:08.410Z,100627.84
2022-12-04T05:11:35.929Z,100624.38
2022-12-04T05:14:03.400Z,100624.38
2022-12-04T05:16:30.949Z,100627.03
2022-12-04T05:19:17.263Z,100638.47
2022-12-04T05:21:44.751Z,100634.88
2022-12-04T05:24:12.241Z,100626.13
2022-12-04T05:26:39.711Z,100617.44
2022-12-04T05:29:07.159Z,100620.78
2022-12-04T05:31:34.680Z,100597.56
2022-12-04T05:34:03.488Z,100620.78
2022-12-04T05:36:30.946Z,100622.50
2022-12-04T05:38:58.416Z,100613.75
2022-12-04T05:41:25.844Z,100625.19
2022-12-04T05:43:53.350Z,100582.06
2022-12-04T05:46:20.870Z,100612.06
2022-12-04T05:48:48.363Z,100617.28
2022-12-04T05:51:17.120Z,100620.78
2022-12-04T05:53:44.605Z,100612.00
2022-12-04T05:56:12.051Z,100625.19
2022-12-04T05:58:39.525Z,100624.25
2022-12-04T06:01:11.481Z,100623.38
2022-12-04T06:03:39.086Z,100628.72
2022-12-04T06:06:17.522Z,100625.13
2022-12-04T06:08:49.761Z,100632.19
2022-12-04T06:11:18.704Z,100631.34
2022-12-04T06:13:46.394Z,100607.31
2022-12-04T06:16:15.322Z,100634.06
2022-12-04T06:18:42.882Z,100631.41
2022-12-04T06:21:10.485Z,100633.13
2022-12-04T06:23:38.008Z,100627.84
2022-12-04T06:26:07.644Z,100625.13
2022-12-04T06:28:35.145Z,100625.13
2022-12-04T06:31:03.269Z,100601.84
2022-12-04T06:33:30.762Z,100624.25
2022-12-04T06:36:01.366Z,100577.75
2022-12-04T06:38:28.858Z,100623.38
2022-12-04T06:40:56.388Z,100626.00
2022-12-04T06:43:25.270Z,100620.78
2022-12-04T06:46:00.637Z,100618.97
2022-12-04T06:48:29.225Z,100625.19
2022-12-04T06:51:00.385Z,100625.13
2022-12-04T06:53:30.252Z,100619.91
2022-12-04T06:55:58.680Z,100627.78
2022-12-04T06:58:27.498Z,100619.81
2022-12-04T07:00:55.095Z,100629.53
2022-12-04T07:03:22.777Z,100551.25
2022-12-04T07:05:50.302Z,100628.72
2022-12-04T07:08:18.158Z,100525.50
2022-12-04T07:10:45.672Z,100630.47
2022-12-04T07:13:13.141Z,100625.19
2022-12-04T07:15:41.930Z,100618.38
2022-12-04T07:18:09.425Z,100631.41
2022-12-04T07:20:37.006Z,100634.06
2022-12-04T07:23:07.388Z,100628.78
2022-12-04T07:25:35.033Z,100634.88
2022-12-04T07:28:02.485Z,100640.09
2022-12-04T07:30:30.030Z,100636.63
2022-12-04T07:32:58.937Z,100636.63
2022-12-04T07:35:26.366Z,100607.19
2022-12-04T07:37:53.816Z,100638.41
2022-12-04T07:40:21.264Z,100633.13
2022-12-04T07:42:48.736Z,100628.78
2022-12-04T07:45:16.347Z,100634.06
2022-12-04T07:47:43.771Z,100630.47
2022-12-04T07:50:12.565Z,100637.47
2022-12-04T07:52:40.131Z,100635.75
2022-12-04T07:55:08.141Z,100637.47
2022-12-04T07:57:35.628Z,100642.75
2022-12-04T08:00:03.184Z,100625.25
2022-12-04T08:02:30.697Z,100627.91
2022-12-04T08:04:58.214Z,100636.56
2022-12-04T08:07:27.226Z,100635.69
2022-12-04T08:09:54.925Z,100628.81
2022-12-04T08:12:22.515Z,100632.19
2022-12-04T08:14:50.250Z,100608.84
2022-12-04T08:17:17.778Z,100631.34
2022-12-04T08:19:45.291Z,100630.47
2022-12-04T08:22:12.749Z,100626.91
2022-12-04T08:24:41.600Z,100633.19
2022-12-04T08:27:09.044Z,100639.22
2022-12-04T08:29:36.501Z,100639.22
2022-12-04T08:32:04.130Z,100636.56
2022-12-04T08:34:31.593Z,100640.06
2022-12-04T08:36:59.093Z,100640.06
2022-12-04T08:39:26.875Z,100641.84
2022-12-04T08:41:57.304Z,100645.34
2022-12-04T08:44:25.113Z,100640.09
2022-12-04T08:46:52.653Z,100637.47
2022-12-04T08:49:20.170Z,100590.28
2022-12-04T08:51:47.624Z,100635.66
2022-12-04T08:54:15.841Z,100642.63
2022-12-04T08:56:44.355Z,100611.66
2022-12-04T08:59:13.597Z,100585.72
2022-12-04T09:01:41.165Z,100636.50
2022-12-04T09:04:08.749Z,100634.72
2022-12-04T09:06:36.253Z,100627.84
2022-12-04T09:09:04.034Z,100637.34
2022-12-04T09:11:32.816Z,100631.22
2022-12-04T09:14:00.461Z,100638.22
2022-12-04T09:16:29.362Z,100635.66
2022-12-04T09:18:57.386Z,100573.69
2022-12-04T09:21:25.473Z,100639.16
2022-12-04T09:23:52.942Z,100646.16
2022-12-04T09:26:22.520Z,100601.31
2022-12-04T09:28:50.131Z,100583.25
2022-12-04T09:31:17.724Z,100641.75
2022-12-04T09:33:46.581Z,100637.28
2022-12-04T09:36:16.084Z,100639.94
2022-12-04T09:38:44.411Z,100638.16
2022-12-04T09:41:21.285Z,100589.28
2022-12-04T09:43:50.181Z,100630.31
2022-12-04T09:46:19.568Z,100632.94
2022-12-04T09:48:49.021Z,100552.84
2022-12-04T09:51:18.799Z,100631.19
2022-12-04T09:53:47.936Z,100633.81
2022-12-04T09:56:19.651Z,100577.84
2022-12-04T09:58:48.552Z,100624.09
2022-12-04T10:01:20.685Z,100629.31
2022-12-04T10:03:49.799Z,100635.53
2022-12-04T10:06:19.322Z,100632.94
2022-12-04T10:08:47.280Z,100564.19
2022-12-04T10:11:18.049Z,100617.50
2022-12-04T10:13:56.972Z,100643.38
2022-12-04T10:16:25.456Z,100641.69
2022-12-04T10:18:57.852Z,100601.22
2022-12-04T10:21:33.819Z,100632.81
2022-12-04T10:24:09.155Z,100620.84
2022-12-04T10:26:38.309Z,100621.50
2022-12-04T10:29:08.418Z,100544.78
2022-12-04T10:31:36.622Z,100606.13
2022-12-04T10:34:07.021Z,100626.78
2022-12-04T10:36:35.310Z,100625.78
2022-12-04T10:39:04.521Z,100629.25
2022-12-04T10:41:35.553Z,100634.59
2022-12-04T10:44:03.027Z,100629.31
2022-12-04T10:46:31.399Z,100619.81
2022-12-04T10:49:00.387Z,100621.38
2022-12-04T10:51:30.896Z,100614.34
2022-12-04T10:53:58.529Z,100620.56
2022-12-04T10:56:26.644Z,100616.09
2022-12-04T10:58:58.576Z,100609.00
2022-12-04T11:01:26.229Z,100601.06
2022-12-04T11:03:59.236Z,100604.59
2022-12-04T11:06:26.972Z,100534.00
2022-12-04T11:08:55.882Z,100591.44
2022-12-04T11:11:27.472Z,100540.69
2022-12-04T11:14:05.125Z,100564.00
2022-12-04T11:16:37.882Z,100595.78
2022-12-04T11:19:19.815Z,100604.66
2022-12-04T11:21:47.293Z,100574.69
2022-12-04T11:24:19.866Z,100594.09
2022-12-04T11:26:47.483Z,100607.28
2022-12-04T11:29:15.154Z,100600.22
2022-12-04T11:31:42.633Z,100557.03
2022-12-04T11:34:10.180Z,100590.50
2022-12-04T11:36:40.355Z,100582.13
2022-12-04T11:39:08.249Z,100602.91
2022-12-04T11:41:37.049Z,100572.75
2022-12-04T11:44:06.351Z,100590.75
2022-12-04T11:46:34.348Z,100532.28
2022-12-04T11:49:03.222Z,100583.25
2022-12-04T11:51:37.952Z,100591.44
2022-12-04T11:54:08.177Z,100552.22
2022-12-04T11:56:37.108Z,100597.69
2022-12-04T11:59:30.509Z,100585.28
2022-12-04T12:02:01.256Z,100578.38
2022-12-04T12:04:44.016Z,100581.72
2022-12-04T12:07:17.697Z,100575.66
2022-12-04T12:09:48.227Z,100530.06
2022-12-04T12:12:18.984Z,100590.56
2022-12-04T12:14:49.743Z,100595.84
2022-12-04T12:17:21.666Z,100586.22
2022-12-04T12:19:57.023Z,100545.59
2022-12-04T12:22:34.364Z,100567.75
2022-12-04T12:25:04.335Z,100571.22
2022-12-04T12:27:43.689Z,100565.03
2022-12-04T12:30:15.553Z,100492.78
2022-12-04T12:32:54.278Z,100571.16
2022-12-04T12:35:23.356Z,100521.31
2022-12-04T12:37:52.016Z,100571.09
2022-12-04T12:40:26.733Z,100508.94
2022-12-04T12:42:58.673Z,100558.81
2022-12-04T12:45:29.620Z,100555.31
2022-12-04T12:50:25.672Z,100550.09
2022-12-04T12:52:55.370Z,100545.75
2022-12-04T12:55:24.136Z,100546.63
2022-12-04T12:57:57.319Z,100507.88
2022-12-04T13:00:24.761Z,100530.31
2022-12-04T13:02:54.757Z,100539.53
2022-12-04T13:05:25.575Z,100534.19
2022-12-04T13:07:58.209Z,100540.34
2022-12-04T13:10:26.609Z,100502.28
2022-12-04T13:12:55.688Z,100518.34
2022-12-04T13:15:25.754Z,100499.66
2022-12-04T13:17:54.072Z,100517.50
2022-12-04T13:20:23.080Z,100483.06
2022-12-04T13:22:58.129Z,100498.59
2022-12-04T13:25:35.869Z,100486.19
2022-12-04T13:28:08.090Z,100501.66
2022-12-04T13:30:43.297Z,100504.31
2022-12-04T13:33:37.856Z,100499.88
2022-12-04T13:36:13.219Z,100492.81
2022-12-04T13:38:45.005Z,100496.38
2022-12-04T13:41:13.456Z,100493.69
2022-12-04T13:43:46.469Z,100487.53
2022-12-04T13:46:26.587Z,100494.53
2022-12-04T13:48:53.911Z,100495.56
2022-12-04T13:51:37.064Z,100470.47
2022-12-04T13:54:24.891Z,100486.72
2022-12-04T13:56:53.169Z,100448.13
2022-12-04T13:59:37.873Z,100459.19
2022-12-04T14:02:22.940Z,100483.19
2022-12-04T14:04:54.978Z,100447.16
2022-12-04T14:07:28.617Z,100488.47
2022-12-04T14:09:56.973Z,100482.25
2022-12-04T14:12:27.051Z,100484.88
2022-12-04T14:14:55.568Z,100479.69
2022-12-04T14:17:26.406Z,100478.75
2022-12-04T14:19:55.064Z,100448.88
2022-12-04T14:22:30.993Z,100463.53
2022-12-04T14:25:09.623Z,100483.19
2022-12-04T14:27:44.258Z,100439.44
2022-12-04T14:30:19.615Z,100437.69
2022-12-04T14:32:48.485Z,100485.00
2022-12-04T14:35:16.135Z,100484.09
2022-12-04T14:37:46.774Z,100484.97
2022-12-04T14:40:18.429Z,100480.53
2022-12-04T14:42:48.406Z,100485.81
2022-12-04T14:45:25.141Z,100441.19
2022-12-04T14:48:11.986Z,100487.53
2022-12-04T14:50:42.512Z,100489.31
2022-12-04T14:53:14.156Z,100484.09
2022-12-04T14:55:45.158Z,100484.28
2022-12-04T14:58:29.082Z,100495.53
2022-12-04T15:00:57.348Z,100489.38
2022-12-04T15:03:26.242Z,100490.25
2022-12-04T15:05:53.749Z,100495.53
2022-12-04T15:08:21.607Z,100494.66
2022-12-04T15:11:07.558Z,100462.25
2022-12-04T15:13:37.213Z,100500.72
2022-12-04T15:16:09.583Z,100508.66
2022-12-04T15:18:39.842Z,100508.66
2022-12-04T15:21:07.846Z,100501.78
2022-12-04T15:23:36.626Z,100509.59
2022-12-04T15:26:05.481Z,100495.63
2022-12-04T15:28:35.055Z,100504.31
2022-12-04T15:31:03.601Z,100506.94
2022-12-04T15:33:33.854Z,100514.88
2022-12-04T15:36:03.575Z,100501.72
2022-12-04T15:38:31.126Z,100497.41
2022-12-04T15:40:59.896Z,100462.13
2022-12-04T15:43:29.773Z,100452.81
2022-12-04T15:45:57.419Z,100498.22
2022-12-04T15:48:26.369Z,100502.56
2022-12-04T15:51:02.477Z,100507.78
2022-12-04T15:53:31.254Z,100513.25
2022-12-04T15:56:00.638Z,100524.50
2022-12-04T15:58:28.938Z,100504.81
2022-12-04T16:00:57.279Z,100528.06
2022-12-04T16:03:26.494Z,100527.19
2022-12-04T16:06:08.105Z,100526.34
2022-12-04T16:08:37.042Z,100539.53
2022-12-04T16:11:05.706Z,100534.25
2022-12-04T16:13:35.168Z,100508.53
2022-12-04T16:16:05.450Z,100513.56
2022-12-04T16:18:32.932Z,100533.34
2022-12-04T16:21:00.409Z,100538.63
2022-12-04T16:23:29.173Z,100543.91
2022-12-04T16:25:56.702Z,100547.47
2022-12-04T16:28:24.182Z,100537.75
2022-12-04T16:30:52.435Z,100531.63
2022-12-04T16:33:19.984Z,100505.81
2022-12-04T16:35:47.454Z,100531.63
2022-12-04T16:38:16.579Z,100511.97
2022-12-04T16:40:46.044Z,100537.75
2022-12-04T16:43:14.290Z,100526.34
2022-12-04T16:45:44.841Z,100531.56
2022-12-04T16:48:12.344Z,100528.91
2022-12-04T16:50:39.881Z,100527.13
2022-12-04T16:53:07.355Z,100531.56
2022-12-04T16:55:35.908Z,100535.06
2022-12-04T16:58:04.726Z,100538.63
2022-12-04T17:00:32.354Z,100538.63
2022-12-04T17:02:59.838Z,100536.00
2022-12-04T17:05:28.509Z,100532.53
2022-12-04T17:07:56.052Z,100536.06
2022-12-04T17:10:24.569Z,100538.75
2022-12-04T17:12:52.750Z,100531.19
2022-12-04T17:15:21.564Z,100543.03
2022-12-04T17:17:49.007Z,100550.97
2022-12-04T17:20:17.330Z,100554.47
2022-12-04T17:22:44.914Z,100550.97
2022-12-04T17:25:12.505Z,100526.09
2022-12-04T17:27:40.004Z,100521.84
2022-12-04T17:30:08.698Z,100561.47
2022-12-04T17:32:37.548Z,100559.75
2022-12-04T17:35:05.904Z,100560.66
2022-12-04T17:37:33.525Z,100512.41
2022-12-04T17:40:01.015Z,100555.38
2022-12-04T17:42:28.518Z,100545.75
2022-12-04T17:44:56.124Z,100545.75
2022-12-04T17:47:23.704Z,100519.16
2022-12-04T17:49:52.495Z,100549.19
2022-12-04T17:52:22.286Z,100549.19
2022-12-04T17:54:50.055Z,100554.47
2022-12-04T17:57:17.780Z,100542.19
2022-12-04T17:59:45.331Z,100501.66
2022-12-04T18:02:14.757Z,100497.50
2022-12-04T18:04:42.261Z,100508.47
2022-12-04T18:07:11.042Z,100533.34
2022-12-04T18:09:38.539Z,100531.63
2022-12-04T18:12:06.345Z,100525.06
2022-12-04T18:14:35.059Z,100543.03
2022-12-04T18:17:02.696Z,100545.69
2022-12-04T18:19:30.295Z,100542.19
2022-12-04T18:21:57.893Z,100541.22
2022-12-04T18:24:26.850Z,100539.47
2022-12-04T18:26:54.427Z,100536.00
2022-12-04T18:29:23.815Z,100535.94
2022-12-04T18:31:51.904Z,100536.84
2022-12-04T18:34:19.477Z,100533.34
2022-12-04T18:36:46.930Z,100526.28
2022-12-04T18:39:16.095Z,100495.25
2022-12-04T18:41:44.965Z,100525.44
2022-12-04T18:44:12.628Z,100473.03
2022-12-04T18:46:40.196Z,100515.78
2022-12-04T18:49:09.072Z,100502.28
2022-12-04T18:51:39.289Z,100497.00
2022-12-04T18:54:07.153Z,100514.94
2022-12-04T18:56:35.703Z,100502.09
2022-12-04T18:59:05.596Z,100523.63
2022-12-04T19:01:33.165Z,100507.19
2022-12-04T19:04:01.603Z,100498.72
2022-12-04T19:06:30.399Z,100490.09
2022-12-04T19:08:59.501Z,100527.13
2022-12-04T19:11:26.970Z,100525.38
2022-12-04T19:13:54.430Z,100534.13
2022-12-04T19:16:23.238Z,100529.78
2022-12-04T19:18:50.779Z,100532.41
2022-12-04T19:21:19.001Z,100535.06
2022-12-04T19:23:50.008Z,100506.88
2022-12-04T19:26:17.829Z,100542.97
2022-12-04T19:28:45.356Z,100542.06
2022-12-04T19:31:16.454Z,100546.50
2022-12-04T19:33:45.300Z,100538.56
2022-12-04T19:36:13.305Z,100545.56
2022-12-04T19:38:40.826Z,100542.06
2022-12-04T19:41:10.001Z,100526.81
2022-12-04T19:43:37.729Z,100545.63
2022-12-04T19:46:05.433Z,100552.63
2022-12-04T19:48:32.944Z,100555.31
2022-12-04T19:51:05.640Z,100556.19
2022-12-04T19:53:37.742Z,100549.19
2022-12-04T19:56:13.068Z,100514.78
2022-12-04T19:58:40.532Z,100546.50
2022-12-04T20:01:09.103Z,100524.19
2022-12-04T20:03:36.935Z,100557.91
2022-12-04T20:06:06.424Z,100517.25
2022-12-04T20:08:33.898Z,100551.78
2022-12-04T20:11:03.344Z,100532.91
2022-12-04T20:13:30.884Z,100550.91
2022-12-04T20:16:02.036Z,100545.63
2022-12-04T20:18:29.553Z,100547.41
2022-12-04T20:20:57.305Z,100545.69
2022-12-04T20:23:26.156Z,100514.72
2022-12-04T20:25:53.596Z,100539.53
2022-12-04T20:28:21.082Z,100509.41
2022-12-04T20:30:49.677Z,100533.47
2022-12-04T20:33:17.255Z,100537.69
2022-12-04T20:35:44.758Z,100532.41
2022-12-04T20:38:13.337Z,100533.28
2022-12-04T20:40:42.125Z,100500.59
2022-12-04T20:43:09.588Z,100533.34
2022-12-04T20:45:37.048Z,100528.06
2022-12-04T20:48:04.660Z,100523.63
2022-12-04T20:50:32.098Z,100518.34
2022-12-04T20:52:59.541Z,100524.50
2022-12-04T20:55:26.982Z,100519.22
2022-12-04T20:57:57.245Z,100517.50
2022-12-04T21:00:24.724Z,100516.63
2022-12-04T21:02:52.525Z,100520.16
2022-12-04T21:05:20.082Z,100511.38
2022-12-04T21:07:47.581Z,100509.59
2022-12-04T21:10:15.047Z,100511.28
2022-12-04T21:13:00.514Z,100509.53
2022-12-04T21:15:46.937Z,100502.50
2022-12-04T21:18:14.429Z,100506.94
2022-12-04T21:20:41.883Z,100500.91
2022-12-04T21:23:09.362Z,100504.31
2022-12-04T21:25:37.205Z,100497.41
2022-12-04T21:28:04.700Z,100499.03
2022-12-04T21:30:33.732Z,100499.03
2022-12-04T21:33:01.199Z,100499.94
2022-12-04T21:35:28.959Z,100499.03
2022-12-04T21:37:56.621Z,100501.66
2022-12-04T21:40:24.068Z,100498.16
2022-12-04T21:42:51.552Z,100491.09
2022-12-04T21:45:19.006Z,100488.41
2022-12-04T21:47:47.809Z,100487.59
2022-12-04T21:50:15.255Z,100486.66
2022-12-04T21:52:42.725Z,100478.94
2022-12-04T21:55:10.539Z,100486.66
2022-12-04T21:57:38.017Z,100479.59
2022-12-04T22:00:06.743Z,100483.19
2022-12-04T22:02:36.046Z,100487.53
2022-12-04T22:05:05.717Z,100481.38
2022-12-04T22:07:33.478Z,100481.38
2022-12-04T22:10:05.517Z,100487.53
2022-12-04T22:12:51.873Z,100479.59
2022-12-04T22:15:19.466Z,100488.34
2022-12-04T22:17:46.946Z,100488.34
2022-12-04T22:20:15.885Z,100500.69
2022-12-04T22:22:43.336Z,100501.53
2022-12-04T22:25:10.920Z,100501.53
2022-12-04T22:27:38.411Z,100497.16
2022-12-04T22:30:07.559Z,100500.69
2022-12-04T22:32:35.306Z,100495.41
2022-12-04T22:35:02.736Z,100493.69
2022-12-04T22:37:31.612Z,100484.88
2022-12-04T22:39:59.187Z,100498.09
2022-12-04T22:42:26.870Z,100492.81
2022-12-04T22:44:54.311Z,100494.53
2022-12-04T22:47:21.781Z,100493.63
2022-12-04T22:49:49.240Z,100488.66
2022-12-04T22:52:16.709Z,100495.41
2022-12-04T22:54:45.519Z,100492.69
2022-12-04T22:57:12.990Z,100490.13
2022-12-04T22:59:40.434Z,100493.56
2022-12-04T23:02:07.906Z,100486.53
2022-12-04T23:04:35.380Z,100460.88
2022-12-04T23:07:02.897Z,100496.25
2022-12-04T23:09:31.076Z,100490.13
2022-12-04T23:11:59.897Z,100494.47
2022-12-04T23:14:28.802Z,100485.63
2022-12-04T23:16:56.443Z,100450.44
2022-12-04T23:19:24.195Z,100445.28
2022-12-04T23:21:56.960Z,100480.41
2022-12-04T23:24:24.820Z,100490.84
2022-12-04T23:26:52.253Z,100488.28
2022-12-04T23:29:51.547Z,100489.13
2022-12-04T23:32:08.539Z,100486.53
2022-12-04T23:34:35.980Z,100488.28
2022-12-04T23:37:03.442Z,100484.75
2022-12-04T23:39:30.911Z,100489.19
2022-12-04T23:41:58.349Z,100489.19
2022-12-04T23:44:27.139Z,100493.63
2022-12-04T23:46:54.644Z,100487.41
2022-12-04T23:49:22.141Z,100502.31
2022-12-04T23:51:49.701Z,100502.31
2022-12-04T23:54:17.155Z,100506.69
2022-12-04T23:56:44.616Z,100504.06
2022-12-04T23:59:12.060Z,100503.13
